Data for 06/18/2013

Time Sea-Level Adjusted Pressure Absolute Pressure Temperature Relative Humidity Dew Point   
(mb) (inHg) (mb) (inHg) (C) (F) (%) (C) (F)
00:05 1017 30.03 846 24.98 17.3 63.1 61 9.8 49.6
00:10 1017 30.03 846 24.98 17.3 63.1 61 9.7 49.5
00:15 1017 30.03 846 24.98 17.2 63 61 9.7 49.5
00:20 1017 30.03 846 24.98 17.1 62.8 62 9.8 49.7
00:25 1017 30.03 846 24.98 16.9 62.5 62 9.8 49.6
00:30 1017 30.03 846 24.98 16.8 62.2 63 9.8 49.6
00:35 1017 30.03 846 24.98 16.7 62.1 63 9.8 49.6
00:40 1017 30.03 846 24.98 16.6 61.8 64 9.7 49.5
00:45 1017 30.03 846 24.98 16.5 61.8 64 9.7 49.5
00:50 1017 30.03 846 24.98 16.5 61.7 64 9.7 49.5
00:55 1017 30.03 846 24.98 16.5 61.6 64 9.6 49.3
01:00 1017 30.03 846 24.98 16.5 61.6 64 9.6 49.3
01:05 1017 30.03 846 24.98 16.5 61.6 64 9.7 49.4
01:10 1017 30.03 846 24.98 16.3 61.3 64 9.6 49.3
01:15 1017 30.03 846 24.98 16.2 61.2 65 9.6 49.3
01:20 1017 30.03 846 24.98 16.2 61.1 65 9.6 49.3
01:25 1017 30.03 846 24.98 16.1 60.9 65 9.6 49.2
01:30 1017 30.03 846 24.98 16 60.7 65 9.4 49
01:35 1017 30.03 846 24.98 16 60.8 65 9.6 49.2
01:40 1017 30.03 846 24.98 15.9 60.6 65 9.5 49.1
01:45 1017 30.03 846 24.98 15.8 60.5 66 9.5 49.2
01:50 1017 30.03 846 24.98 15.8 60.4 66 9.5 49.1
01:55 1017 30.03 846 24.98 15.8 60.5 66 9.5 49.1
02:00 1017 30.03 846 24.98 15.7 60.3 66 9.4 49
02:05 1017 30.03 846 24.98 15.8 60.4 66 9.4 49
02:10 1017 30.03 846 24.98 15.8 60.4 66 9.4 49
02:15 1017 30.03 846 24.98 15.7 60.3 66 9.4 48.9
02:20 1017 30.03 846 24.98 15.6 60.1 66 9.4 48.9
02:25 1017 30.03 846 24.98 15.6 60 66 9.4 48.9
02:30 1017 30.03 846 24.98 15.5 59.9 67 9.4 48.9
02:35 1017 30.03 846 24.98 15.5 59.8 67 9.4 49
02:40 1017 30.03 846 24.98 15.4 59.7 67 9.4 48.9
02:45 1017 30.03 846 24.98 15.4 59.6 67 9.3 48.8
02:50 1017 30.03 846 24.98 15.3 59.5 67 9.4 48.8
02:55 1017 30.03 846 24.98 15.4 59.6 67 9.3 48.8
03:00 1017 30.03 846 24.98 15.4 59.7 67 9.4 48.9
03:05 1017 30.03 846 24.98 15.3 59.5 67 9.4 48.9
03:10 1017 30.03 846 24.98 15.3 59.5 68 9.4 49
03:15 1017 30.03 846 24.98 15.2 59.3 68 9.4 48.9
03:20 1017 30.03 846 24.98 15.2 59.3 68 9.4 48.9
03:25 1017 30.03 846 24.98 15.2 59.3 68 9.4 48.9
03:30 1017 30.03 847 25.01 15.1 59.2 68 9.4 48.9
03:35 1017 30.03 847 25.01 15 59 69 9.4 48.9
03:40 1017 30.03 847 25.01 14.8 58.7 69 9.4 48.8
03:45 1017 30.03 847 25.01 14.7 58.5 70 9.4 48.9
03:50 1017 30.03 846 24.98 14.7 58.4 70 9.3 48.8
03:55 1017 30.03 847 25.01 14.6 58.2 71 9.3 48.8
04:00 1017 30.03 847 25.01 14.5 58 71 9.3 48.7
04:05 1017 30.03 847 25.01 14.4 57.9 72 9.3 48.8
04:10 1018 30.06 847 25.01 14.2 57.6 72 9.3 48.7
04:15 1017 30.03 847 25.01 14.2 57.6 72 9.2 48.6
04:20 1017 30.03 847 25.01 14.2 57.5 72 9.3 48.8
04:25 1017 30.03 847 25.01 14.1 57.4 72 9.3 48.7
04:30 1017 30.03 847 25.01 14.1 57.4 72 9.3 48.7
04:35 1017 30.03 847 25.01 14.1 57.5 72 9.3 48.7
04:40 1017 30.03 847 25.01 14.1 57.3 72 9.2 48.6
04:45 1017 30.03 847 25.01 14.1 57.3 72 9.2 48.6
04:50 1017 30.03 847 25.01 14 57.1 73 9.2 48.6
04:55 1017 30.03 847 25.01 13.9 57 73 9.2 48.5
05:00 1017 30.03 847 25.01 13.9 57.1 73 9.2 48.5
05:05 1017 30.03 847 25.01 13.9 57.1 73 9.1 48.4
05:10 1017 30.03 847 25.01 14 57.2 72 9.1 48.3
05:15 1017 30.03 846 24.98 14.1 57.3 72 9.1 48.4
05:20 1017 30.03 846 24.98 14 57.2 72 9.1 48.3
05:25 1017 30.03 846 24.98 14 57.2 71 8.9 48
05:30 1017 30.03 846 24.98 14.1 57.3 71 9 48.2
05:35 1017 30.03 846 24.98 14.1 57.4 71 9 48.2
05:40 1017 30.03 846 24.98 14.1 57.4 71 9 48.2
05:45 1017 30.03 846 24.98 14.1 57.4 71 9 48.1
05:50 1017 30.03 846 24.98 14.2 57.5 71 8.9 48.1
05:55 1017 30.03 846 24.98 14.3 57.7 70 9 48.1
06:00 1017 30.03 846 24.98 14.3 57.7 70 9 48.1
06:05 1017 30.03 846 24.98 14.4 57.9 69 9 48.1
06:10 1017 30.03 846 24.98 14.5 58.1 69 9 48.1
06:15 1017 30.03 846 24.98 14.8 58.6 68 8.9 48.1
06:20 1017 30.03 846 24.98 15 58.9 67 8.9 48
06:25 1017 30.03 846 24.98 15.1 59.2 66 9 48.1
06:30 1017 30.03 846 24.98 15.3 59.5 66 9.1 48.4
06:35 1017 30.03 846 24.98 15.3 59.6 66 9 48.1
06:40 1017 30.03 846 24.98 15.5 59.9 65 9 48.3
06:45 1017 30.03 846 24.98 15.7 60.2 64 8.9 48
06:50 1017 30.03 846 24.98 15.9 60.7 63 8.9 48
06:55 1017 30.03 846 24.98 16.1 61 61 8.8 47.8
07:00 1017 30.03 846 24.98 16.2 61.1 61 8.7 47.6
07:05 1017 30.03 846 24.98 16.3 61.4 60 8.7 47.6
07:10 1017 30.03 846 24.98 16.6 61.8 59 8.7 47.7
07:15 1017 30.03 846 24.98 16.7 62 59 8.7 47.7
07:20 1017 30.03 846 24.98 16.9 62.4 58 8.6 47.6
07:25 1017 30.03 846 24.98 17.3 63.1 57 8.7 47.6
07:30 1017 30.03 846 24.98 17.4 63.2 56 8.7 47.6
07:35 1017 30.03 846 24.98 17.7 63.9 54 8.4 47.1
07:40 1017 30.03 846 24.98 17.6 63.7 54 8.4 47.1
07:45 1017 30.03 846 24.98 17.5 63.4 56 8.7 47.7
07:50 1017 30.03 846 24.98 17.5 63.6 57 8.9 48
07:55 1017 30.03 846 24.98 17.8 64.1 55 8.6 47.6
08:00 1017 30.03 846 24.98 17.9 64.3 54 8.6 47.6
08:05 1017 30.03 846 24.98 18.2 64.7 54 8.9 48
08:10 1017 30.03 846 24.98 18.4 65.1 58 10.1 50.3
08:15 1017 30.03 846 24.98 18.1 64.7 58 9.8 49.6
08:20 1017 30.03 846 24.98 18.3 65 57 9.6 49.4
08:25 1016 30 846 24.98 18.9 66 53 9.2 48.6
08:30 1016 30 846 24.98 19.6 67.2 54 10.2 50.4
08:35 1016 30 846 24.98 19.4 67 52 9.4 48.9
08:40 1016 30 845 24.95 19.9 67.7 52 10 50
08:45 1016 30 845 24.95 20.1 68.1 50 9.6 49.2
08:50 1016 30 845 24.95 20.5 68.9 48 9.4 48.9
08:55 1016 30 845 24.95 20.7 69.2 50 10.1 50.1
09:00 1016 30 845 24.95 20.6 69.1 50 10.1 50.1
09:05 1016 30 845 24.95 20.5 68.9 51 10.3 50.5
09:10 1016 30 845 24.95 20.6 69.1 50 10 50
09:15 1016 30 845 24.95 21.6 70.9 47 9.9 49.8
09:20 1016 30 845 24.95 21.7 71 48 10.3 50.5
09:25 1016 30 845 24.95 21.3 70.3 48 10 50
09:30 1016 30 845 24.95 20.8 69.4 49 9.9 49.9
09:35 1016 30 845 24.95 20.8 69.4 50 10.2 50.4
09:40 1016 30 845 24.95 21.1 69.9 50 10.4 50.7
09:45 1016 30 845 24.95 21.2 70.1 48 10 50
09:50 1015 29.97 845 24.95 21.6 70.8 49 10.7 51.2
09:55 1015 29.97 845 24.95 21.3 70.4 49 10.4 50.7
10:00 1015 29.97 845 24.95 21.7 71 49 10.7 51.2
10:05 1015 29.97 845 24.95 22 71.5 46 9.8 49.7
10:10 1015 29.97 844 24.92 22.5 72.5 44 9.9 49.7
10:15 1015 29.97 844 24.92 23.1 73.6 42 9.7 49.4
10:20 1015 29.97 844 24.92 23.1 73.5 43 10.1 50.3
10:25 1015 29.97 844 24.92 22.7 72.9 44 10 50
10:30 1015 29.97 844 24.92 23.2 73.8 43 10.1 50.2
10:35 1015 29.97 844 24.92 23.8 74.8 42 10.4 50.7
10:40 1015 29.97 844 24.92 23.9 74.9 42 10.5 51
10:45 1015 29.97 844 24.92 24.1 75.4 41 10.3 50.6
10:50 1015 29.97 844 24.92 23.9 75.1 42 10.3 50.6
10:55 1015 29.97 844 24.92 23.5 74.2 41 9.7 49.4
11:00 1015 29.97 844 24.92 23.6 74.5 42 10.3 50.5
11:05 1014 29.94 844 24.92 24.5 76 38 9.6 49.2
11:10 1014 29.94 844 24.92 25.7 78.2 38 10.6 51
11:15 1014 29.94 844 24.92 26.1 79 37 10.4 50.8
11:20 1014 29.94 844 24.92 26 78.8 37 10.6 51
11:25 1014 29.94 843 24.89 25.6 78 40 11.2 52.1
11:30 1014 29.94 843 24.89 25.3 77.6 38 10.3 50.5
11:35 1014 29.94 843 24.89 25.5 77.9 38 10.2 50.4
11:40 1014 29.94 843 24.89 25.9 78.6 40 11.4 52.5
11:45 1014 29.94 843 24.89 26.1 78.9 36 10.2 50.3
11:50 1014 29.94 843 24.89 26.9 80.4 35 10.4 50.8
11:55 1014 29.94 843 24.89 26.3 79.4 37 10.7 51.2
12:00 1014 29.94 843 24.89 26.2 79.2 38 10.9 51.5
12:05 1014 29.94 843 24.89 25.9 78.7 38 10.8 51.4
12:10 1014 29.94 843 24.89 27.1 80.9 33 9.8 49.6
12:15 1014 29.94 843 24.89 27.8 82 34 11 51.7
12:20 1014 29.94 843 24.89 26.3 79.3 37 10.7 51.2
12:25 1014 29.94 843 24.89 27 80.7 30 8.2 46.8
12:30 1013 29.91 843 24.89 26.7 80.1 31 8.4 47.1
12:35 1013 29.91 843 24.89 26.1 78.9 35 9.6 49.2
12:40 1013 29.91 843 24.89 25.8 78.4 37 10.2 50.4
12:45 1013 29.91 843 24.89 25.8 78.4 39 10.9 51.7
12:50 1013 29.91 842 24.86 25.7 78.3 33 8.5 47.3
12:55 1013 29.91 842 24.86 25.4 77.8 28 5.7 42.3
13:00 1013 29.91 842 24.86 25.3 77.5 33 8 46.4
13:05 1013 29.91 842 24.86 25.1 77.1 32 7.6 45.6
13:10 1013 29.91 842 24.86 24.8 76.7 34 8.2 46.8
13:15 1013 29.91 842 24.86 24.5 76.1 38 9.5 49.2
13:20 1013 29.91 842 24.86 24.2 75.5 37 8.7 47.7
13:25 1013 29.91 842 24.86 24 75.3 38 9 48.2
13:30 1013 29.91 842 24.86 24 75.2 38 9.1 48.3
13:35 1013 29.91 842 24.86 24.1 75.3 37 8.8 47.9
13:40 1013 29.91 842 24.86 24.2 75.5 36 8.3 46.9
13:45 1013 29.91 842 24.86 24.7 76.4 28 5.2 41.4
13:50 1013 29.91 842 24.86 25.1 77.2 27 5.2 41.4
13:55 1013 29.91 842 24.86 25.4 77.7 31 7.5 45.5
14:00 1013 29.91 842 24.86 25.4 77.6 30 7 44.5
14:05 1012 29.88 842 24.86 25.9 78.5 27 5.5 41.9
14:10 1013 29.91 842 24.86 26.4 79.6 26 5.5 41.8
14:15 1013 29.91 842 24.86 26.1 79 28 6.7 44
14:20 1013 29.91 842 24.86 26.2 79.1 27 5.8 42.5
14:25 1013 29.91 842 24.86 25.8 78.5 28 6.3 43.3
14:30 1012 29.88 842 24.86 25.3 77.5 26 4.9 40.8
14:35 1012 29.88 842 24.86 24.9 76.8 29 5.7 42.3
14:40 1012 29.88 842 24.86 24.5 76 30 6.1 43
14:45 1012 29.88 841 24.83 24.4 75.9 31 6.3 43.3
14:50 1012 29.88 841 24.83 24.9 76.7 30 6.5 43.7
14:55 1012 29.88 841 24.83 25.2 77.3 30 6.8 44.2
15:00 1012 29.88 841 24.83 25 77.1 30 6.4 43.6
15:05 1012 29.88 841 24.83 25.4 77.7 28 6.1 42.9
15:10 1012 29.88 841 24.83 25.8 78.4 32 8.2 46.8
15:15 1012 29.88 841 24.83 25.6 78.1 32 8 46.4
15:20 1012 29.88 841 24.83 25.8 78.5 34 9 48.1
15:25 1012 29.88 841 24.83 25.7 78.3 36 9.6 49.4
15:30 1012 29.88 841 24.83 25.8 78.4 38 10.8 51.5
15:35 1011 29.85 841 24.83 25.7 78.3 37 10.2 50.3
15:40 1011 29.85 841 24.83 26.1 78.9 34 9.1 48.3
15:45 1011 29.85 840 24.81 26.5 79.7 28 7 44.6
15:50 1011 29.85 840 24.81 26.7 80 25 5.1 41.1
15:55 1011 29.85 840 24.81 26.1 79 25 5.1 41.2
16:00 1011 29.85 840 24.81 25.9 78.5 24 3.9 39
16:05 1011 29.85 840 24.81 25.7 78.3 22 2.8 37.1
16:10 1011 29.85 840 24.81 25.7 78.2 21 2.1 35.8
16:15 1012 29.88 841 24.83 25.7 78.2 20 1 33.8
16:20 1011 29.85 841 24.83 25.7 78.2 18 0.2 32.3
16:25 1011 29.85 841 24.83 25.6 78.1 21 1.7 35.1
16:30 1011 29.85 841 24.83 25.4 77.7 22 2.3 36.1
16:35 1011 29.85 840 24.81 25.3 77.5 22 2.3 36.2
16:40 1011 29.85 840 24.81 25.1 77.2 23 2.9 37.3
16:45 1011 29.85 840 24.81 24.9 76.8 24 3.3 37.9
16:50 1011 29.85 840 24.81 24.9 76.9 24 3.4 38.2
16:55 1011 29.85 840 24.81 25 77.1 25 3.6 38.5
17:00 1011 29.85 840 24.81 25.1 77.2 25 3.9 39
17:05 1011 29.85 840 24.81 25.2 77.3 25 4.1 39.4
17:10 1011 29.85 840 24.81 25.6 78 25 4.3 39.7
17:15 1011 29.85 840 24.81 25.7 78.3 24 3.9 39
17:20 1011 29.85 840 24.81 25.7 78.2 24 3.9 39
17:25 1011 29.85 840 24.81 25.5 77.8 25 4.4 40
17:30 1011 29.85 840 24.81 25.2 77.4 27 4.9 40.9
17:35 1010 29.83 840 24.81 25 77.1 27 5.1 41.2
17:40 1010 29.83 840 24.81 25 76.9 27 4.7 40.5
17:45 1010 29.83 840 24.81 25 77 26 4.6 40.3
17:50 1010 29.83 840 24.81 25 77 25 4 39.2
17:55 1010 29.83 840 24.81 25 77 25 3.8 38.9
18:00 1010 29.83 840 24.81 25 77 24 3.5 38.3
18:05 1011 29.85 840 24.81 25.1 77.1 25 3.7 38.6
18:10 1011 29.85 840 24.81 25.1 77.1 25 3.7 38.7
18:15 1010 29.83 839 24.78 25.1 77.1 25 3.7 38.7
18:20 1010 29.83 839 24.78 25.1 77.3 25 3.8 38.8
18:25 1010 29.83 839 24.78 25.1 77.2 24 3.5 38.3
18:30 1010 29.83 839 24.78 25.1 77.1 25 4.1 39.4
18:35 1010 29.83 839 24.78 24.8 76.7 23 2.4 36.3
18:40 1010 29.83 839 24.78 24.7 76.4 24 3.1 37.5
18:45 1010 29.83 839 24.78 24.3 75.7 24 2.9 37.2
18:50 1010 29.83 839 24.78 24 75.2 23 2.1 35.7
18:55 1010 29.83 839 24.78 24.1 75.3 23 2.1 35.8
19:00 1010 29.83 839 24.78 24.3 75.7 22 1.3 34.4
19:05 1010 29.83 839 24.78 24.4 75.9 23 2 35.6
19:10 1010 29.83 839 24.78 24.3 75.7 24 2.3 36.2
19:15 1010 29.83 839 24.78 24.1 75.4 24 2.3 36.2
19:20 1010 29.83 839 24.78 24 75.3 23 2 35.6
19:25 1010 29.83 839 24.78 24 75.2 24 2.3 36.2
19:30 1010 29.83 839 24.78 23.9 75.1 24 2.5 36.5
19:35 1010 29.83 839 24.78 23.8 74.9 24 2.1 35.8
19:40 1010 29.83 839 24.78 23.8 74.9 24 2 35.6
19:45 1010 29.83 839 24.78 23.7 74.6 24 2.3 36.1
19:50 1010 29.83 839 24.78 23.5 74.3 24 2.3 36.1
19:55 1010 29.83 839 24.78 23.3 74 24 1.7 35
20:00 1010 29.83 839 24.78 23.5 74.4 23 1.4 34.6
20:05 1010 29.83 839 24.78 23.4 74.2 24 1.6 34.9
20:10 1010 29.83 839 24.78 23.3 74 23 1.4 34.6
20:15 1010 29.83 839 24.78 23.3 73.9 24 1.7 35.1
20:20 1010 29.83 839 24.78 23.1 73.5 24 1.7 35.1
20:25 1010 29.83 839 24.78 22.9 73.2 23 0.8 33.4
20:30 1010 29.83 839 24.78 23.2 73.8 23 1 33.7
20:35 1010 29.83 839 24.78 23.4 74 21 0.1 32.2
20:40 1010 29.83 839 24.78 23.5 74.2 22 0.7 33.2
20:45 1010 29.83 839 24.78 23.2 73.8 22 0.8 33.4
20:50 1010 29.83 839 24.78 23 73.4 23 0.8 33.5
20:55 1010 29.83 839 24.78 22.8 73 23 0.8 33.4
21:00 1010 29.83 839 24.78 22.6 72.7 23 0.8 33.4
21:05 1010 29.83 839 24.78 22.5 72.4 24 1 33.9
21:10 1010 29.83 839 24.78 22.3 72.1 23 0.5 32.9
21:15 1010 29.83 839 24.78 22.3 72.2 24 0.8 33.4
21:20 1010 29.83 839 24.78 22.3 72.1 24 0.8 33.4
21:25 1010 29.83 839 24.78 22.4 72.2 24 1.1 34
21:30 1010 29.83 839 24.78 22.2 71.9 24 1.1 33.9
21:35 1010 29.83 839 24.78 22.1 71.7 24 0.9 33.7
21:40 1010 29.83 839 24.78 22 71.6 24 0.8 33.4
21:45 1009 29.8 839 24.78 22.1 71.8 23 0.3 32.5
21:50 1010 29.83 839 24.78 22.3 72.1 24 1.2 34.1
21:55 1009 29.8 839 24.78 22.1 71.8 23 0.4 32.7
22:00 1009 29.8 839 24.78 22.3 72.1 22 -0.2 31.6
22:05 1009 29.8 839 24.78 22.4 72.3 21 -0.5 31.1
22:10 1009 29.8 838 24.75 22.6 72.6 22 -0.2 31.7
22:15 1009 29.8 838 24.75 22.7 72.8 22 0.2 32.4
22:20 1009 29.8 838 24.75 22.2 72 23 0.2 32.4
22:25 1009 29.8 838 24.75 22 71.6 23 0.2 32.3
22:30 1009 29.8 838 24.75 22.1 71.7 23 0.1 32.3
22:35 1009 29.8 838 24.75 21.9 71.3 22 -0.9 30.4
22:40 1009 29.8 838 24.75 22.1 71.7 22 -0.2 31.6
22:45 1009 29.8 838 24.75 22.2 71.9 22 -0.3 31.5
22:50 1009 29.8 838 24.75 21.8 71.3 24 0.4 32.7
22:55 1009 29.8 838 24.75 21.4 70.5 24 0.4 32.7
23:00 1009 29.8 838 24.75 21.2 70.2 25 0.7 33.2
23:05 1009 29.8 838 24.75 20.9 69.6 26 0.7 33.3
23:10 1009 29.8 838 24.75 20.6 69 27 1 33.8
23:15 1009 29.8 838 24.75 20.4 68.7 27 0.9 33.5
23:20 1009 29.8 838 24.75 20.4 68.6 28 1.3 34.3
23:25 1009 29.8 838 24.75 20.2 68.4 28 1.3 34.4
23:30 1009 29.8 838 24.75 20.2 68.3 29 1.9 35.3
23:35 1009 29.8 838 24.75 20.2 68.3 29 1.9 35.5
23:40 1009 29.8 838 24.75 20.1 68.2 29 1.9 35.4
23:45 1009 29.8 838 24.75 20 68.1 30 1.9 35.5
23:50 1009 29.8 838 24.75 20 68.1 30 1.9 35.5
23:55 1009 29.8 838 24.75 20.1 68.2 30 2.1 35.8
24:00 1009 29.8 838 24.75 20.2 68.3 30 2.4 36.3